sensor_id;sensor_type;location;lat;lon;timestamp;P1;durP1;ratioP1;P2;durP2;ratioP2
49784;SDS011;35679;38.732;-121.358;2023-07-16T00:00:59;3.80;;;3.50;;
49784;SDS011;35679;38.732;-121.358;2023-07-16T00:03:48;3.22;;;2.92;;
49784;SDS011;35679;38.732;-121.358;2023-07-16T00:06:38;5.38;;;3.33;;
49784;SDS011;35679;38.732;-121.358;2023-07-16T00:09:28;3.20;;;3.00;;
49784;SDS011;35679;38.732;-121.358;2023-07-16T00:12:17;3.30;;;3.10;;
49784;SDS011;35679;38.732;-121.358;2023-07-16T00:15:07;4.55;;;4.10;;
49784;SDS011;35679;38.732;-121.358;2023-07-16T00:17:57;3.53;;;3.33;;
49784;SDS011;35679;38.732;-121.358;2023-07-16T00:20:46;3.55;;;3.25;;
49784;SDS011;35679;38.732;-121.358;2023-07-16T00:23:36;3.80;;;3.50;;
49784;SDS011;35679;38.732;-121.358;2023-07-16T00:26:25;3.88;;;3.60;;
49784;SDS011;35679;38.732;-121.358;2023-07-16T00:29:15;3.92;;;3.63;;
49784;SDS011;35679;38.732;-121.358;2023-07-16T00:32:05;3.90;;;3.70;;
49784;SDS011;35679;38.732;-121.358;2023-07-16T00:34:56;4.20;;;3.90;;
49784;SDS011;35679;38.732;-121.358;2023-07-16T00:37:46;4.28;;;3.88;;
49784;SDS011;35679;38.732;-121.358;2023-07-16T00:40:35;4.10;;;3.80;;
49784;SDS011;35679;38.732;-121.358;2023-07-16T00:43:25;4.00;;;3.67;;
49784;SDS011;35679;38.732;-121.358;2023-07-16T00:46:14;3.22;;;3.00;;
49784;SDS011;35679;38.732;-121.358;2023-07-16T00:49:05;3.78;;;3.50;;
49784;SDS011;35679;38.732;-121.358;2023-07-16T00:51:55;3.35;;;3.15;;
49784;SDS011;35679;38.732;-121.358;2023-07-16T00:54:48;3.72;;;3.42;;
49784;SDS011;35679;38.732;-121.358;2023-07-16T00:57:38;3.65;;;3.38;;
49784;SDS011;35679;38.732;-121.358;2023-07-16T01:00:28;3.35;;;3.05;;
49784;SDS011;35679;38.732;-121.358;2023-07-16T01:03:18;3.40;;;3.20;;
49784;SDS011;35679;38.732;-121.358;2023-07-16T01:11:51;3.70;;;3.40;;
49784;SDS011;35679;38.732;-121.358;2023-07-16T01:14:43;3.92;;;3.33;;
49784;SDS011;35679;38.732;-121.358;2023-07-16T01:17:32;3.75;;;3.45;;
49784;SDS011;35679;38.732;-121.358;2023-07-16T01:20:22;2.97;;;2.80;;
49784;SDS011;35679;38.732;-121.358;2023-07-16T01:29:18;3.10;;;2.90;;
49784;SDS011;35679;38.732;-121.358;2023-07-16T01:32:23;3.05;;;2.85;;
49784;SDS011;35679;38.732;-121.358;2023-07-16T01:35:13;3.65;;;3.33;;
49784;SDS011;35679;38.732;-121.358;2023-07-16T01:38:04;3.15;;;2.95;;
49784;SDS011;35679;38.732;-121.358;2023-07-16T01:40:54;2.90;;;2.70;;
49784;SDS011;35679;38.732;-121.358;2023-07-16T01:43:43;3.10;;;2.90;;
49784;SDS011;35679;38.732;-121.358;2023-07-16T01:46:33;3.22;;;3.03;;
49784;SDS011;35679;38.732;-121.358;2023-07-16T01:49:24;3.40;;;3.20;;
49784;SDS011;35679;38.732;-121.358;2023-07-16T01:52:13;3.33;;;3.13;;
49784;SDS011;35679;38.732;-121.358;2023-07-16T01:55:04;3.20;;;3.00;;
49784;SDS011;35679;38.732;-121.358;2023-07-16T01:57:54;3.35;;;3.15;;
49784;SDS011;35679;38.732;-121.358;2023-07-16T02:00:43;3.70;;;3.40;;
49784;SDS011;35679;38.732;-121.358;2023-07-16T02:03:34;3.08;;;2.88;;
49784;SDS011;35679;38.732;-121.358;2023-07-16T02:06:24;3.22;;;2.80;;
49784;SDS011;35679;38.732;-121.358;2023-07-16T02:09:14;3.17;;;2.95;;
49784;SDS011;35679;38.732;-121.358;2023-07-16T02:12:05;3.28;;;3.08;;
49784;SDS011;35679;38.732;-121.358;2023-07-16T02:14:55;3.28;;;2.97;;
49784;SDS011;35679;38.732;-121.358;2023-07-16T02:17:45;3.42;;;3.22;;
49784;SDS011;35679;38.732;-121.358;2023-07-16T02:20:35;3.53;;;3.33;;
49784;SDS011;35679;38.732;-121.358;2023-07-16T02:23:25;3.58;;;3.38;;
49784;SDS011;35679;38.732;-121.358;2023-07-16T02:26:16;3.72;;;3.42;;
49784;SDS011;35679;38.732;-121.358;2023-07-16T02:29:05;3.63;;;3.42;;
49784;SDS011;35679;38.732;-121.358;2023-07-16T02:31:57;2.90;;;2.80;;
49784;SDS011;35679;38.732;-121.358;2023-07-16T02:34:47;3.58;;;3.38;;
49784;SDS011;35679;38.732;-121.358;2023-07-16T02:37:37;3.63;;;3.42;;
49784;SDS011;35679;38.732;-121.358;2023-07-16T02:40:27;3.45;;;3.15;;
49784;SDS011;35679;38.732;-121.358;2023-07-16T02:43:16;3.55;;;3.22;;
49784;SDS011;35679;38.732;-121.358;2023-07-16T02:46:06;3.83;;;3.53;;
49784;SDS011;35679;38.732;-121.358;2023-07-16T02:48:56;3.50;;;3.30;;
49784;SDS011;35679;38.732;-121.358;2023-07-16T02:51:46;3.47;;;3.17;;
49784;SDS011;35679;38.732;-121.358;2023-07-16T02:54:35;3.58;;;3.30;;
49784;SDS011;35679;38.732;-121.358;2023-07-16T02:57:25;3.42;;;3.22;;
49784;SDS011;35679;38.732;-121.358;2023-07-16T03:00:14;3.72;;;3.42;;
49784;SDS011;35679;38.732;-121.358;2023-07-16T03:03:04;7.45;;;7.05;;
49784;SDS011;35679;38.732;-121.358;2023-07-16T03:05:55;6.63;;;6.30;;
49784;SDS011;35679;38.732;-121.358;2023-07-16T03:08:45;6.78;;;6.38;;
49784;SDS011;35679;38.732;-121.358;2023-07-16T03:11:36;6.15;;;5.82;;
49784;SDS011;35679;38.732;-121.358;2023-07-16T03:14:25;7.30;;;6.90;;
49784;SDS011;35679;38.732;-121.358;2023-07-16T03:17:16;6.57;;;6.28;;
49784;SDS011;35679;38.732;-121.358;2023-07-16T03:20:05;6.70;;;6.30;;
49784;SDS011;35679;38.732;-121.358;2023-07-16T03:22:55;7.63;;;7.22;;
49784;SDS011;35679;38.732;-121.358;2023-07-16T03:25:45;7.72;;;7.22;;
49784;SDS011;35679;38.732;-121.358;2023-07-16T03:28:35;7.68;;;7.18;;
49784;SDS011;35679;38.732;-121.358;2023-07-16T03:34:16;7.10;;;6.70;;
49784;SDS011;35679;38.732;-121.358;2023-07-16T03:37:06;6.90;;;6.45;;
49784;SDS011;35679;38.732;-121.358;2023-07-16T03:39:55;7.22;;;6.88;;
49784;SDS011;35679;38.732;-121.358;2023-07-16T03:42:45;6.30;;;6.00;;
49784;SDS011;35679;38.732;-121.358;2023-07-16T03:45:34;6.30;;;5.90;;
49784;SDS011;35679;38.732;-121.358;2023-07-16T03:48:24;7.43;;;7.03;;
49784;SDS011;35679;38.732;-121.358;2023-07-16T03:51:13;6.15;;;5.80;;
49784;SDS011;35679;38.732;-121.358;2023-07-16T03:54:04;5.50;;;5.20;;
49784;SDS011;35679;38.732;-121.358;2023-07-16T03:56:54;7.93;;;7.53;;
49784;SDS011;35679;38.732;-121.358;2023-07-16T03:59:44;9.02;;;8.55;;
49784;SDS011;35679;38.732;-121.358;2023-07-16T04:02:34;8.45;;;7.95;;
49784;SDS011;35679;38.732;-121.358;2023-07-16T04:05:24;9.70;;;9.20;;
49784;SDS011;35679;38.732;-121.358;2023-07-16T04:08:13;9.18;;;8.68;;
49784;SDS011;35679;38.732;-121.358;2023-07-16T04:11:04;4.25;;;3.97;;
49784;SDS011;35679;38.732;-121.358;2023-07-16T04:13:53;4.10;;;3.75;;
49784;SDS011;35679;38.732;-121.358;2023-07-16T04:16:43;4.55;;;4.15;;
49784;SDS011;35679;38.732;-121.358;2023-07-16T04:19:32;3.85;;;3.50;;
49784;SDS011;35679;38.732;-121.358;2023-07-16T04:22:22;3.97;;;3.72;;
49784;SDS011;35679;38.732;-121.358;2023-07-16T04:25:11;4.25;;;4.05;;
49784;SDS011;35679;38.732;-121.358;2023-07-16T04:28:02;4.15;;;3.70;;
49784;SDS011;35679;38.732;-121.358;2023-07-16T04:30:52;4.18;;;3.63;;
49784;SDS011;35679;38.732;-121.358;2023-07-16T04:33:42;4.35;;;3.97;;
49784;SDS011;35679;38.732;-121.358;2023-07-16T04:36:31;3.58;;;3.38;;
49784;SDS011;35679;38.732;-121.358;2023-07-16T04:39:21;3.92;;;3.63;;
49784;SDS011;35679;38.732;-121.358;2023-07-16T04:42:10;3.80;;;3.60;;
49784;SDS011;35679;38.732;-121.358;2023-07-16T04:44:59;3.40;;;3.20;;
49784;SDS011;35679;38.732;-121.358;2023-07-16T04:47:49;3.72;;;3.42;;
49784;SDS011;35679;38.732;-121.358;2023-07-16T04:50:38;3.88;;;3.58;;
49784;SDS011;35679;38.732;-121.358;2023-07-16T04:53:28;3.60;;;3.40;;
49784;SDS011;35679;38.732;-121.358;2023-07-16T04:56:17;3.65;;;3.45;;
49784;SDS011;35679;38.732;-121.358;2023-07-16T04:59:07;4.00;;;3.80;;
49784;SDS011;35679;38.732;-121.358;2023-07-16T05:01:56;3.75;;;3.45;;
49784;SDS011;35679;38.732;-121.358;2023-07-16T05:04:46;3.90;;;3.60;;
49784;SDS011;35679;38.732;-121.358;2023-07-16T05:07:38;6.57;;;5.20;;
49784;SDS011;35679;38.732;-121.358;2023-07-16T05:10:28;5.55;;;5.10;;
49784;SDS011;35679;38.732;-121.358;2023-07-16T05:13:18;5.28;;;4.88;;
49784;SDS011;35679;38.732;-121.358;2023-07-16T05:16:08;4.82;;;4.53;;
49784;SDS011;35679;38.732;-121.358;2023-07-16T05:18:57;5.30;;;4.90;;
49784;SDS011;35679;38.732;-121.358;2023-07-16T05:21:47;5.40;;;5.00;;
49784;SDS011;35679;38.732;-121.358;2023-07-16T05:24:36;5.35;;;5.03;;
49784;SDS011;35679;38.732;-121.358;2023-07-16T05:27:26;5.00;;;4.60;;
49784;SDS011;35679;38.732;-121.358;2023-07-16T05:30:16;5.20;;;4.78;;
49784;SDS011;35679;38.732;-121.358;2023-07-16T05:33:05;5.13;;;4.78;;
49784;SDS011;35679;38.732;-121.358;2023-07-16T05:35:55;5.20;;;4.90;;
49784;SDS011;35679;38.732;-121.358;2023-07-16T05:38:44;3.40;;;3.10;;
49784;SDS011;35679;38.732;-121.358;2023-07-16T05:41:34;3.60;;;3.30;;
49784;SDS011;35679;38.732;-121.358;2023-07-16T05:44:23;4.95;;;3.30;;
49784;SDS011;35679;38.732;-121.358;2023-07-16T05:47:13;4.90;;;3.47;;
49784;SDS011;35679;38.732;-121.358;2023-07-16T05:50:02;3.92;;;3.33;;
49784;SDS011;35679;38.732;-121.358;2023-07-16T05:52:53;3.67;;;3.38;;
49784;SDS011;35679;38.732;-121.358;2023-07-16T05:55:42;6.25;;;3.60;;
49784;SDS011;35679;38.732;-121.358;2023-07-16T05:58:32;3.72;;;3.42;;
49784;SDS011;35679;38.732;-121.358;2023-07-16T06:01:21;3.53;;;3.00;;
49784;SDS011;35679;38.732;-121.358;2023-07-16T06:04:11;4.13;;;3.58;;
49784;SDS011;35679;38.732;-121.358;2023-07-16T06:07:00;5.20;;;3.50;;
49784;SDS011;35679;38.732;-121.358;2023-07-16T06:09:51;3.43;;;3.17;;
49784;SDS011;35679;38.732;-121.358;2023-07-16T06:12:41;4.82;;;3.33;;
49784;SDS011;35679;38.732;-121.358;2023-07-16T06:15:30;4.38;;;3.78;;
49784;SDS011;35679;38.732;-121.358;2023-07-16T06:18:20;3.63;;;3.33;;
49784;SDS011;35679;38.732;-121.358;2023-07-16T06:21:09;4.38;;;3.80;;
49784;SDS011;35679;38.732;-121.358;2023-07-16T06:23:59;6.72;;;3.63;;
49784;SDS011;35679;38.732;-121.358;2023-07-16T06:26:48;6.15;;;3.60;;
49784;SDS011;35679;38.732;-121.358;2023-07-16T06:29:38;4.10;;;3.70;;
49784;SDS011;35679;38.732;-121.358;2023-07-16T06:32:27;4.03;;;3.63;;
49784;SDS011;35679;38.732;-121.358;2023-07-16T06:35:17;8.35;;;4.20;;
49784;SDS011;35679;38.732;-121.358;2023-07-16T06:38:06;8.27;;;3.95;;
49784;SDS011;35679;38.732;-121.358;2023-07-16T06:40:56;4.35;;;3.92;;
49784;SDS011;35679;38.732;-121.358;2023-07-16T06:43:45;7.38;;;3.78;;
49784;SDS011;35679;38.732;-121.358;2023-07-16T06:46:35;3.80;;;3.50;;
49784;SDS011;35679;38.732;-121.358;2023-07-16T06:49:24;5.05;;;3.90;;
49784;SDS011;35679;38.732;-121.358;2023-07-16T06:52:23;3.63;;;3.33;;
49784;SDS011;35679;38.732;-121.358;2023-07-16T06:55:15;4.13;;;3.42;;
49784;SDS011;35679;38.732;-121.358;2023-07-16T06:58:05;4.18;;;3.80;;
49784;SDS011;35679;38.732;-121.358;2023-07-16T07:00:56;4.35;;;3.95;;
49784;SDS011;35679;38.732;-121.358;2023-07-16T07:03:45;4.75;;;4.22;;
49784;SDS011;35679;38.732;-121.358;2023-07-16T07:06:35;5.95;;;3.67;;
49784;SDS011;35679;38.732;-121.358;2023-07-16T07:09:24;5.68;;;3.58;;
49784;SDS011;35679;38.732;-121.358;2023-07-16T07:12:14;4.53;;;4.05;;
49784;SDS011;35679;38.732;-121.358;2023-07-16T07:15:05;4.97;;;3.90;;
49784;SDS011;35679;38.732;-121.358;2023-07-16T07:17:58;7.07;;;4.63;;
49784;SDS011;35679;38.732;-121.358;2023-07-16T07:20:47;3.92;;;3.63;;
49784;SDS011;35679;38.732;-121.358;2023-07-16T07:23:37;7.07;;;3.92;;
49784;SDS011;35679;38.732;-121.358;2023-07-16T07:26:27;9.18;;;4.32;;
49784;SDS011;35679;38.732;-121.358;2023-07-16T07:29:16;3.97;;;3.60;;
49784;SDS011;35679;38.732;-121.358;2023-07-16T07:32:06;4.88;;;4.22;;
49784;SDS011;35679;38.732;-121.358;2023-07-16T07:34:56;5.05;;;4.07;;
49784;SDS011;35679;38.732;-121.358;2023-07-16T07:37:48;5.60;;;4.03;;
49784;SDS011;35679;38.732;-121.358;2023-07-16T07:40:37;4.07;;;3.55;;
49784;SDS011;35679;38.732;-121.358;2023-07-16T07:43:27;4.18;;;3.80;;
49784;SDS011;35679;38.732;-121.358;2023-07-16T07:46:16;3.63;;;3.28;;
49784;SDS011;35679;38.732;-121.358;2023-07-16T07:49:06;3.58;;;3.25;;
49784;SDS011;35679;38.732;-121.358;2023-07-16T07:51:56;5.97;;;3.22;;
49784;SDS011;35679;38.732;-121.358;2023-07-16T07:54:45;4.65;;;3.38;;
49784;SDS011;35679;38.732;-121.358;2023-07-16T07:57:35;3.42;;;3.13;;
49784;SDS011;35679;38.732;-121.358;2023-07-16T08:00:24;4.25;;;3.95;;
49784;SDS011;35679;38.732;-121.358;2023-07-16T08:03:14;5.68;;;4.00;;
49784;SDS011;35679;38.732;-121.358;2023-07-16T08:06:03;4.03;;;3.63;;
49784;SDS011;35679;38.732;-121.358;2023-07-16T08:08:53;4.55;;;3.55;;
49784;SDS011;35679;38.732;-121.358;2023-07-16T08:11:42;4.68;;;3.42;;
49784;SDS011;35679;38.732;-121.358;2023-07-16T08:14:32;3.65;;;3.35;;
49784;SDS011;35679;38.732;-121.358;2023-07-16T08:17:21;4.35;;;3.47;;
49784;SDS011;35679;38.732;-121.358;2023-07-16T08:20:11;4.18;;;3.63;;
49784;SDS011;35679;38.732;-121.358;2023-07-16T08:23:01;3.75;;;3.45;;
49784;SDS011;35679;38.732;-121.358;2023-07-16T08:25:50;4.20;;;3.78;;
49784;SDS011;35679;38.732;-121.358;2023-07-16T08:28:40;5.82;;;3.80;;
49784;SDS011;35679;38.732;-121.358;2023-07-16T08:31:29;5.65;;;3.80;;
49784;SDS011;35679;38.732;-121.358;2023-07-16T08:34:19;4.80;;;3.90;;
49784;SDS011;35679;38.732;-121.358;2023-07-16T08:37:08;4.90;;;4.10;;
49784;SDS011;35679;38.732;-121.358;2023-07-16T08:39:58;4.05;;;3.65;;
49784;SDS011;35679;38.732;-121.358;2023-07-16T08:42:47;4.15;;;3.83;;
49784;SDS011;35679;38.732;-121.358;2023-07-16T08:45:39;4.50;;;3.78;;
49784;SDS011;35679;38.732;-121.358;2023-07-16T08:51:20;4.00;;;3.58;;
49784;SDS011;35679;38.732;-121.358;2023-07-16T08:54:10;3.97;;;3.58;;
49784;SDS011;35679;38.732;-121.358;2023-07-16T08:57:00;4.60;;;3.70;;
49784;SDS011;35679;38.732;-121.358;2023-07-16T08:59:50;4.10;;;3.80;;
49784;SDS011;35679;38.732;-121.358;2023-07-16T09:02:40;5.15;;;3.58;;
49784;SDS011;35679;38.732;-121.358;2023-07-16T09:05:30;4.32;;;3.45;;
49784;SDS011;35679;38.732;-121.358;2023-07-16T09:08:27;4.43;;;3.60;;
49784;SDS011;35679;38.732;-121.358;2023-07-16T09:11:17;3.88;;;3.58;;
49784;SDS011;35679;38.732;-121.358;2023-07-16T09:14:10;3.97;;;3.67;;
49784;SDS011;35679;38.732;-121.358;2023-07-16T09:16:59;3.90;;;3.60;;
49784;SDS011;35679;38.732;-121.358;2023-07-16T09:19:49;6.30;;;3.80;;
49784;SDS011;35679;38.732;-121.358;2023-07-16T09:22:47;3.88;;;3.58;;
49784;SDS011;35679;38.732;-121.358;2023-07-16T09:25:37;3.80;;;3.30;;
49784;SDS011;35679;38.732;-121.358;2023-07-16T09:28:29;5.07;;;3.50;;
49784;SDS011;35679;38.732;-121.358;2023-07-16T09:31:20;3.60;;;3.30;;
49784;SDS011;35679;38.732;-121.358;2023-07-16T09:34:09;4.20;;;3.58;;
49784;SDS011;35679;38.732;-121.358;2023-07-16T09:37:00;4.00;;;3.70;;
49784;SDS011;35679;38.732;-121.358;2023-07-16T09:39:50;4.47;;;4.07;;
49784;SDS011;35679;38.732;-121.358;2023-07-16T09:42:43;4.07;;;3.78;;
49784;SDS011;35679;38.732;-121.358;2023-07-16T09:45:32;3.97;;;3.67;;
49784;SDS011;35679;38.732;-121.358;2023-07-16T09:48:22;4.07;;;3.78;;
49784;SDS011;35679;38.732;-121.358;2023-07-16T09:51:11;3.92;;;3.50;;
49784;SDS011;35679;38.732;-121.358;2023-07-16T09:54:02;4.07;;;3.78;;
49784;SDS011;35679;38.732;-121.358;2023-07-16T09:56:53;3.72;;;3.42;;
49784;SDS011;35679;38.732;-121.358;2023-07-16T09:59:47;4.30;;;3.70;;
49784;SDS011;35679;38.732;-121.358;2023-07-16T10:02:37;4.30;;;3.60;;
49784;SDS011;35679;38.732;-121.358;2023-07-16T10:05:30;3.83;;;3.53;;
49784;SDS011;35679;38.732;-121.358;2023-07-16T10:08:20;5.13;;;3.70;;
49784;SDS011;35679;38.732;-121.358;2023-07-16T10:11:18;4.47;;;3.70;;
49784;SDS011;35679;38.732;-121.358;2023-07-16T10:14:08;3.88;;;3.55;;
49784;SDS011;35679;38.732;-121.358;2023-07-16T10:17:01;4.15;;;3.72;;
49784;SDS011;35679;38.732;-121.358;2023-07-16T10:19:58;3.72;;;3.10;;
49784;SDS011;35679;38.732;-121.358;2023-07-16T10:22:48;3.92;;;3.63;;
49784;SDS011;35679;38.732;-121.358;2023-07-16T10:25:38;5.57;;;3.70;;
49784;SDS011;35679;38.732;-121.358;2023-07-16T10:28:28;3.92;;;3.63;;
49784;SDS011;35679;38.732;-121.358;2023-07-16T10:31:19;3.83;;;3.55;;
49784;SDS011;35679;38.732;-121.358;2023-07-16T10:34:11;3.88;;;3.47;;
49784;SDS011;35679;38.732;-121.358;2023-07-16T10:37:01;4.00;;;3.65;;
49784;SDS011;35679;38.732;-121.358;2023-07-16T10:39:53;3.60;;;3.30;;
49784;SDS011;35679;38.732;-121.358;2023-07-16T10:42:45;4.07;;;3.70;;
49784;SDS011;35679;38.732;-121.358;2023-07-16T10:45:37;4.15;;;3.85;;
49784;SDS011;35679;38.732;-121.358;2023-07-16T10:48:28;4.82;;;4.00;;
49784;SDS011;35679;38.732;-121.358;2023-07-16T10:51:24;4.25;;;3.90;;
49784;SDS011;35679;38.732;-121.358;2023-07-16T10:54:15;4.07;;;3.78;;
49784;SDS011;35679;38.732;-121.358;2023-07-16T10:57:05;5.57;;;3.70;;
49784;SDS011;35679;38.732;-121.358;2023-07-16T10:59:55;4.32;;;3.92;;
49784;SDS011;35679;38.732;-121.358;2023-07-16T11:02:47;4.93;;;3.90;;
49784;SDS011;35679;38.732;-121.358;2023-07-16T11:05:39;4.10;;;3.70;;
49784;SDS011;35679;38.732;-121.358;2023-07-16T11:08:29;4.00;;;3.60;;
49784;SDS011;35679;38.732;-121.358;2023-07-16T11:11:28;5.05;;;3.97;;
49784;SDS011;35679;38.732;-121.358;2023-07-16T11:14:20;4.25;;;3.95;;
49784;SDS011;35679;38.732;-121.358;2023-07-16T11:17:10;4.70;;;3.58;;
49784;SDS011;35679;38.732;-121.358;2023-07-16T11:20:00;5.72;;;3.80;;
49784;SDS011;35679;38.732;-121.358;2023-07-16T11:22:51;4.50;;;4.00;;
49784;SDS011;35679;38.732;-121.358;2023-07-16T11:25:45;7.22;;;4.25;;
49784;SDS011;35679;38.732;-121.358;2023-07-16T11:28:38;3.92;;;3.58;;
49784;SDS011;35679;38.732;-121.358;2023-07-16T11:31:38;5.20;;;3.85;;
49784;SDS011;35679;38.732;-121.358;2023-07-16T11:34:31;5.25;;;3.90;;
49784;SDS011;35679;38.732;-121.358;2023-07-16T11:37:20;4.30;;;3.88;;
49784;SDS011;35679;38.732;-121.358;2023-07-16T11:40:17;7.82;;;4.32;;
49784;SDS011;35679;38.732;-121.358;2023-07-16T11:43:10;4.80;;;4.40;;
49784;SDS011;35679;38.732;-121.358;2023-07-16T11:46:00;4.18;;;3.78;;
49784;SDS011;35679;38.732;-121.358;2023-07-16T11:48:50;4.93;;;4.18;;
49784;SDS011;35679;38.732;-121.358;2023-07-16T11:51:40;4.60;;;4.05;;
49784;SDS011;35679;38.732;-121.358;2023-07-16T11:54:32;7.50;;;3.88;;
49784;SDS011;35679;38.732;-121.358;2023-07-16T11:57:21;5.47;;;3.83;;
49784;SDS011;35679;38.732;-121.358;2023-07-16T12:00:11;5.07;;;3.80;;
49784;SDS011;35679;38.732;-121.358;2023-07-16T12:03:01;5.32;;;3.80;;
49784;SDS011;35679;38.732;-121.358;2023-07-16T12:05:51;5.22;;;4.13;;
49784;SDS011;35679;38.732;-121.358;2023-07-16T12:08:40;9.15;;;4.28;;
49784;SDS011;35679;38.732;-121.358;2023-07-16T12:11:30;5.00;;;4.05;;
49784;SDS011;35679;38.732;-121.358;2023-07-16T12:14:20;5.90;;;4.20;;
49784;SDS011;35679;38.732;-121.358;2023-07-16T12:17:09;5.45;;;3.92;;
49784;SDS011;35679;38.732;-121.358;2023-07-16T12:19:59;4.55;;;4.05;;
49784;SDS011;35679;38.732;-121.358;2023-07-16T12:22:49;5.90;;;4.30;;
49784;SDS011;35679;38.732;-121.358;2023-07-16T12:25:38;7.85;;;4.40;;
49784;SDS011;35679;38.732;-121.358;2023-07-16T12:28:28;7.07;;;3.75;;
49784;SDS011;35679;38.732;-121.358;2023-07-16T12:31:18;5.50;;;4.20;;
49784;SDS011;35679;38.732;-121.358;2023-07-16T12:34:08;6.30;;;4.13;;
49784;SDS011;35679;38.732;-121.358;2023-07-16T12:36:58;4.57;;;4.18;;
49784;SDS011;35679;38.732;-121.358;2023-07-16T12:39:47;6.10;;;4.45;;
49784;SDS011;35679;38.732;-121.358;2023-07-16T12:42:36;5.85;;;4.53;;
49784;SDS011;35679;38.732;-121.358;2023-07-16T12:45:26;8.90;;;4.40;;
49784;SDS011;35679;38.732;-121.358;2023-07-16T12:48:15;4.70;;;4.32;;
49784;SDS011;35679;38.732;-121.358;2023-07-16T12:51:05;6.82;;;4.30;;
49784;SDS011;35679;38.732;-121.358;2023-07-16T12:53:54;4.93;;;4.03;;
49784;SDS011;35679;38.732;-121.358;2023-07-16T12:56:43;5.78;;;4.25;;
49784;SDS011;35679;38.732;-121.358;2023-07-16T12:59:33;6.15;;;3.83;;
49784;SDS011;35679;38.732;-121.358;2023-07-16T13:02:22;5.50;;;4.20;;
49784;SDS011;35679;38.732;-121.358;2023-07-16T13:05:12;5.90;;;4.13;;
49784;SDS011;35679;38.732;-121.358;2023-07-16T13:08:01;4.38;;;3.85;;
49784;SDS011;35679;38.732;-121.358;2023-07-16T13:10:52;11.00;;;4.28;;
49784;SDS011;35679;38.732;-121.358;2023-07-16T13:13:41;4.55;;;4.15;;
49784;SDS011;35679;38.732;-121.358;2023-07-16T13:16:32;4.65;;;3.92;;
49784;SDS011;35679;38.732;-121.358;2023-07-16T13:19:22;7.20;;;4.20;;
49784;SDS011;35679;38.732;-121.358;2023-07-16T13:22:12;4.75;;;3.85;;
49784;SDS011;35679;38.732;-121.358;2023-07-16T13:25:03;5.45;;;4.30;;
49784;SDS011;35679;38.732;-121.358;2023-07-16T13:27:52;7.10;;;4.10;;
49784;SDS011;35679;38.732;-121.358;2023-07-16T13:30:42;5.50;;;4.32;;
49784;SDS011;35679;38.732;-121.358;2023-07-16T13:33:31;6.25;;;4.25;;
49784;SDS011;35679;38.732;-121.358;2023-07-16T13:36:21;5.50;;;4.15;;
49784;SDS011;35679;38.732;-121.358;2023-07-16T13:39:11;4.63;;;3.95;;
49784;SDS011;35679;38.732;-121.358;2023-07-16T13:42:01;5.88;;;4.00;;
49784;SDS011;35679;38.732;-121.358;2023-07-16T13:45:08;7.18;;;3.78;;
49784;SDS011;35679;38.732;-121.358;2023-07-16T13:47:58;5.57;;;4.05;;
49784;SDS011;35679;38.732;-121.358;2023-07-16T13:50:48;11.15;;;4.45;;
49784;SDS011;35679;38.732;-121.358;2023-07-16T13:53:37;4.65;;;4.22;;
49784;SDS011;35679;38.732;-121.358;2023-07-16T13:56:27;10.10;;;4.13;;
49784;SDS011;35679;38.732;-121.358;2023-07-16T13:59:16;4.82;;;4.38;;
49784;SDS011;35679;38.732;-121.358;2023-07-16T14:02:06;4.60;;;4.20;;
49784;SDS011;35679;38.732;-121.358;2023-07-16T14:04:56;5.93;;;4.25;;
49784;SDS011;35679;38.732;-121.358;2023-07-16T14:07:46;4.63;;;4.13;;
49784;SDS011;35679;38.732;-121.358;2023-07-16T14:10:35;6.72;;;3.90;;
49784;SDS011;35679;38.732;-121.358;2023-07-16T14:13:25;5.57;;;4.15;;
49784;SDS011;35679;38.732;-121.358;2023-07-16T14:16:14;4.78;;;4.32;;
49784;SDS011;35679;38.732;-121.358;2023-07-16T14:19:04;6.53;;;4.70;;
49784;SDS011;35679;38.732;-121.358;2023-07-16T14:21:55;6.05;;;4.57;;
49784;SDS011;35679;38.732;-121.358;2023-07-16T14:24:44;4.53;;;4.13;;
49784;SDS011;35679;38.732;-121.358;2023-07-16T14:27:39;6.15;;;4.40;;
49784;SDS011;35679;38.732;-121.358;2023-07-16T14:30:28;6.03;;;4.38;;
49784;SDS011;35679;38.732;-121.358;2023-07-16T14:33:18;7.15;;;4.20;;
49784;SDS011;35679;38.732;-121.358;2023-07-16T14:36:08;5.97;;;4.78;;
49784;SDS011;35679;38.732;-121.358;2023-07-16T14:38:57;5.30;;;4.90;;
49784;SDS011;35679;38.732;-121.358;2023-07-16T14:41:47;5.50;;;5.07;;
49784;SDS011;35679;38.732;-121.358;2023-07-16T14:44:36;6.43;;;4.90;;
49784;SDS011;35679;38.732;-121.358;2023-07-16T14:47:26;5.30;;;4.57;;
49784;SDS011;35679;38.732;-121.358;2023-07-16T14:50:15;6.90;;;5.18;;
49784;SDS011;35679;38.732;-121.358;2023-07-16T14:53:05;6.18;;;5.07;;
49784;SDS011;35679;38.732;-121.358;2023-07-16T14:55:54;5.25;;;4.75;;
49784;SDS011;35679;38.732;-121.358;2023-07-16T14:58:44;5.57;;;4.50;;
49784;SDS011;35679;38.732;-121.358;2023-07-16T15:01:33;8.85;;;4.88;;
49784;SDS011;35679;38.732;-121.358;2023-07-16T15:04:23;5.55;;;5.03;;
49784;SDS011;35679;38.732;-121.358;2023-07-16T15:07:12;8.65;;;5.10;;
49784;SDS011;35679;38.732;-121.358;2023-07-16T15:10:02;5.30;;;4.70;;
49784;SDS011;35679;38.732;-121.358;2023-07-16T15:12:53;6.18;;;5.03;;
49784;SDS011;35679;38.732;-121.358;2023-07-16T15:15:46;5.90;;;5.32;;
49784;SDS011;35679;38.732;-121.358;2023-07-16T15:18:39;5.95;;;5.38;;
49784;SDS011;35679;38.732;-121.358;2023-07-16T15:21:29;7.57;;;4.78;;
49784;SDS011;35679;38.732;-121.358;2023-07-16T15:24:19;5.22;;;4.65;;
49784;SDS011;35679;38.732;-121.358;2023-07-16T15:27:08;5.53;;;4.85;;
49784;SDS011;35679;38.732;-121.358;2023-07-16T15:29:57;5.45;;;4.80;;
49784;SDS011;35679;38.732;-121.358;2023-07-16T15:32:47;5.32;;;4.75;;
49784;SDS011;35679;38.732;-121.358;2023-07-16T15:35:37;5.25;;;4.72;;
49784;SDS011;35679;38.732;-121.358;2023-07-16T15:38:26;4.97;;;4.43;;
49784;SDS011;35679;38.732;-121.358;2023-07-16T15:41:16;7.68;;;4.85;;
49784;SDS011;35679;38.732;-121.358;2023-07-16T15:44:15;5.90;;;4.57;;
49784;SDS011;35679;38.732;-121.358;2023-07-16T15:47:05;4.95;;;4.53;;
49784;SDS011;35679;38.732;-121.358;2023-07-16T15:49:55;6.60;;;4.60;;
49784;SDS011;35679;38.732;-121.358;2023-07-16T15:52:45;4.82;;;4.43;;
49784;SDS011;35679;38.732;-121.358;2023-07-16T15:55:34;6.60;;;5.13;;
49784;SDS011;35679;38.732;-121.358;2023-07-16T15:58:25;8.07;;;4.72;;
49784;SDS011;35679;38.732;-121.358;2023-07-16T16:01:14;6.13;;;4.72;;
49784;SDS011;35679;38.732;-121.358;2023-07-16T16:04:05;5.10;;;4.60;;
49784;SDS011;35679;38.732;-121.358;2023-07-16T16:06:54;7.10;;;4.60;;
49784;SDS011;35679;38.732;-121.358;2023-07-16T16:09:43;4.93;;;4.47;;
49784;SDS011;35679;38.732;-121.358;2023-07-16T16:12:33;5.05;;;4.53;;
49784;SDS011;35679;38.732;-121.358;2023-07-16T16:15:23;5.07;;;4.63;;
49784;SDS011;35679;38.732;-121.358;2023-07-16T16:18:12;4.25;;;3.95;;
49784;SDS011;35679;38.732;-121.358;2023-07-16T16:21:03;5.07;;;4.57;;
49784;SDS011;35679;38.732;-121.358;2023-07-16T16:23:52;7.05;;;4.63;;
49784;SDS011;35679;38.732;-121.358;2023-07-16T16:26:42;5.15;;;4.68;;
49784;SDS011;35679;38.732;-121.358;2023-07-16T16:29:31;4.45;;;4.10;;
49784;SDS011;35679;38.732;-121.358;2023-07-16T16:32:21;4.53;;;4.22;;
49784;SDS011;35679;38.732;-121.358;2023-07-16T16:35:10;6.28;;;4.20;;
49784;SDS011;35679;38.732;-121.358;2023-07-16T16:38:00;5.13;;;4.63;;